Terminal Aerodrome Forecast
Issued by NWS

Home | Current Version | Previous Version | Graphics & Text | Print | Product List | Glossary On
Versions: 1 2 3 4 5 6 7 8 9 10 11 12 13 14 15 16 17 18 19 20 21 22 23
666
FTUS43 KGRB 221732
TAFMTW
TAF
KMTW 221732Z 2218/2318 02008KT P6SM VCSH SCT009 OVC035
      TEMPO 2218/2222 4SM -SHRA BKN007 OVC020
     FM230300 04010G16KT P6SM OVC015
     FM231500 06010KT P6SM OVC022=

USA.gov is the U.S. government's official web portal to all federal, state and local government web resources and services.